Time;durP1;ratioP1;P1;durP2;ratioP2;P2;SDS_P1;SDS_P2;PMS_P1;PMS_P2;Temp;Humidity;BMP_temperature;BMP_pressure;BME280_temperature;BME280_humidity;BME280_pressure;Samples;Min_cycle;Max_cycle;Signal;HPM_P1;HPM_P2
2022/05/08 00:02:19;;;;;;;;;;;8.10;99.90;;;;;;5084097;28;19931;-71
2022/05/08 00:04:45;;;;;;;;;;;8.00;99.90;;;;;;5076922;28;20362;-70
2022/05/08 00:07:11;;;;;;;;;;;8.10;99.90;;;;;;5087390;28;19932;-69
2022/05/08 00:09:37;;;;;;;;;;;8.10;99.90;;;;;;5094229;28;19928;-69
2022/05/08 00:12:03;;;;;;;;;;;7.90;99.90;;;;;;5091908;28;20508;-70
2022/05/08 00:14:28;;;;;;;;;;;7.90;99.90;;;;;;5082510;28;19950;-69
2022/05/08 00:16:54;;;;;;;;;;;7.90;99.90;;;;;;5091839;28;20019;-69
2022/05/08 00:19:19;;;;;;;;;;;7.90;99.90;;;;;;5082486;28;19975;-69
2022/05/08 00:21:45;;;;;;;;;;;8.00;99.90;;;;;;5088715;28;20322;-69
2022/05/08 00:24:10;;;;;;;;;;;7.80;99.90;;;;;;5087774;28;19925;-70
2022/05/08 00:26:36;;;;;;;;;;;7.90;99.90;;;;;;5087205;28;19928;-70
2022/05/08 00:29:01;;;;;;;;;;;8.00;99.90;;;;;;5088770;28;19950;-69
2022/05/08 00:31:27;;;;;;;;;;;7.90;99.90;;;;;;5089480;28;19928;-68
2022/05/08 00:33:52;;;;;;;;;;;7.80;99.90;;;;;;5092382;28;19924;-69
2022/05/08 00:36:19;;;;;;;;;;;8.40;99.90;;;;;;5089706;28;19932;-70
2022/05/08 00:38:44;;;;;;;;;;;7.80;99.90;;;;;;5082142;28;19947;-68
2022/05/08 00:41:10;;;;;;;;;;;7.80;99.90;;;;;;5108676;28;20323;-69
2022/05/08 00:43:38;;;;;;;;;;;7.80;99.90;;;;;;5082617;28;19946;-69
2022/05/08 00:46:03;;;;;;;;;;;8.60;99.90;;;;;;5090310;28;20412;-69
2022/05/08 00:48:29;;;;;;;;;;;7.70;99.90;;;;;;5093994;28;19924;-69
2022/05/08 00:50:55;;;;;;;;;;;8.50;99.90;;;;;;5093025;28;19924;-70
2022/05/08 00:53:21;;;;;;;;;;;7.70;99.90;;;;;;5092534;28;19928;-70
2022/05/08 00:55:46;;;;;;;;;;;7.70;99.90;;;;;;5073280;28;19924;-69
2022/05/08 00:58:13;;;;;;;;;;;7.70;99.90;;;;;;5091028;28;19989;-69
2022/05/08 01:00:39;;;;;;;;;;;7.70;99.90;;;;;;5091845;28;20011;-69
2022/05/08 01:03:05;;;;;;;;;;;7.70;99.90;;;;;;5100656;28;20002;-68
2022/05/08 01:05:30;;;;;;;;;;;7.80;99.90;;;;;;5089052;28;20405;-69
2022/05/08 01:07:56;;;;;;;;;;;7.80;99.90;;;;;;5091796;28;19928;-69
2022/05/08 01:10:22;;;;;;;;;;;7.70;99.90;;;;;;5089815;28;20021;-69
2022/05/08 01:12:47;;;;;;;;;;;8.20;99.90;;;;;;5089258;28;19924;-68
2022/05/08 01:15:14;;;;;;;;;;;7.70;99.90;;;;;;5084034;28;19928;-69
2022/05/08 01:17:39;;;;;;;;;;;7.60;99.90;;;;;;5098503;28;19924;-69
2022/05/08 01:20:05;;;;;;;;;;;7.60;99.90;;;;;;5086810;28;20022;-70
2022/05/08 01:22:31;;;;;;;;;;;7.60;99.90;;;;;;5090972;28;19928;-69
2022/05/08 01:24:58;;;;;;;;;;;9.00;99.90;;;;;;5091935;28;20464;-69
2022/05/08 01:27:24;;;;;;;;;;;7.50;99.90;;;;;;5077874;28;20957;-68
2022/05/08 01:29:49;;;;;;;;;;;7.50;99.90;;;;;;5089633;28;19924;-69
2022/05/08 01:32:15;;;;;;;;;;;7.90;99.90;;;;;;5091990;28;19924;-69
2022/05/08 01:34:40;;;;;;;;;;;7.50;99.90;;;;;;5103523;28;20293;-69
2022/05/08 01:37:06;;;;;;;;;;;7.40;99.90;;;;;;5088054;28;20432;-69
2022/05/08 01:39:31;;;;;;;;;;;7.40;99.90;;;;;;5090046;28;19924;-69
2022/05/08 01:41:58;;;;;;;;;;;7.30;99.90;;;;;;5087000;28;19932;-68
2022/05/08 01:44:24;;;;;;;;;;;7.30;99.90;;;;;;5087535;28;19970;-69
2022/05/08 01:48:21;;;;;;;;;;;7.30;99.90;;;;;;5106172;28;19925;-69
2022/05/08 01:49:35;;;;;;;;;;;7.30;99.90;;;;;;5088707;28;19969;-70
2022/05/08 01:52:00;;;;;;;;;;;7.20;99.90;;;;;;5090038;28;19924;-70
2022/05/08 01:54:26;;;;;;;;;;;7.30;99.90;;;;;;5081942;28;19924;-69
2022/05/08 01:56:52;;;;;;;;;;;7.40;99.90;;;;;;5091530;28;20003;-70
2022/05/08 01:59:17;;;;;;;;;;;7.40;99.90;;;;;;5086211;28;21675;-69
2022/05/08 02:01:43;;;;;;;;;;;7.40;99.90;;;;;;5090236;28;19924;-69
2022/05/08 02:04:15;;;;;;;;;;;7.40;99.90;;;;;;5090152;28;19928;-70
2022/05/08 02:06:44;;;;;;;;;;;7.40;99.90;;;;;;5086129;28;19925;-70
2022/05/08 02:09:10;;;;;;;;;;;7.40;99.90;;;;;;5087251;28;19931;-70
2022/05/08 02:11:35;;;;;;;;;;;7.40;99.90;;;;;;5087989;28;19924;-69
2022/05/08 02:14:02;;;;;;;;;;;7.40;99.90;;;;;;5088852;28;19966;-69
2022/05/08 02:16:28;;;;;;;;;;;7.40;99.90;;;;;;5089171;28;20290;-69
2022/05/08 02:18:54;;;;;;;;;;;7.30;99.90;;;;;;5079390;28;19928;-68
2022/05/08 02:21:20;;;;;;;;;;;7.30;99.90;;;;;;5081368;28;19924;-69
2022/05/08 02:23:48;;;;;;;;;;;7.30;99.90;;;;;;5085299;28;19924;-69
2022/05/08 02:26:13;;;;;;;;;;;7.30;99.90;;;;;;5085885;28;20038;-68
2022/05/08 02:28:39;;;;;;;;;;;7.70;99.90;;;;;;5118764;27;19924;-68
2022/05/08 02:31:05;;;;;;;;;;;7.20;99.90;;;;;;5090584;28;20007;-68
2022/05/08 02:33:32;;;;;;;;;;;7.20;99.90;;;;;;5090445;28;19924;-69
2022/05/08 02:35:58;;;;;;;;;;;7.10;99.90;;;;;;5089443;28;19920;-67
2022/05/08 02:38:24;;;;;;;;;;;8.00;99.90;;;;;;5088230;28;19953;-70
2022/05/08 02:40:50;;;;;;;;;;;7.00;99.90;;;;;;5085630;28;20946;-70
2022/05/08 02:43:20;;;;;;;;;;;7.00;99.90;;;;;;5085944;28;19924;-68
2022/05/08 02:45:46;;;;;;;;;;;6.90;99.90;;;;;;5100595;28;19925;-69
2022/05/08 02:48:12;;;;;;;;;;;6.90;99.90;;;;;;5093899;28;20312;-69
2022/05/08 02:50:37;;;;;;;;;;;6.80;99.90;;;;;;5088891;28;20011;-70
2022/05/08 02:53:03;;;;;;;;;;;6.90;99.90;;;;;;5093156;28;19931;-68
2022/05/08 03:00:57;;;;;;;;;;;7.10;99.90;;;;;;5091976;28;19928;-69
2022/05/08 03:03:23;;;;;;;;;;;6.70;99.90;;;;;;5092774;28;19924;-70
2022/05/08 03:05:48;;;;;;;;;;;6.70;99.90;;;;;;5075547;28;19924;-70
2022/05/08 03:08:15;;;;;;;;;;;6.60;99.90;;;;;;5092035;28;19924;-69
2022/05/08 03:13:29;;;;;;;;;;;6.60;99.90;;;;;;5084484;28;19931;-69
2022/05/08 03:15:54;;;;;;;;;;;6.60;99.90;;;;;;5092084;28;19931;-69
2022/05/08 03:18:20;;;;;;;;;;;8.70;99.90;;;;;;5097536;28;19924;-69
2022/05/08 03:20:45;;;;;;;;;;;8.30;99.90;;;;;;5092366;28;20018;-68
2022/05/08 03:23:11;;;;;;;;;;;6.50;99.90;;;;;;5096735;28;20281;-70
2022/05/08 03:25:36;;;;;;;;;;;6.50;99.90;;;;;;5095651;28;19923;-69
2022/05/08 03:28:02;;;;;;;;;;;6.40;99.90;;;;;;5097485;28;19928;-69
2022/05/08 03:30:28;;;;;;;;;;;6.40;99.90;;;;;;5097523;28;20361;-69
2022/05/08 03:32:54;;;;;;;;;;;6.40;99.90;;;;;;5087174;28;19932;-70
2022/05/08 03:35:20;;;;;;;;;;;6.40;99.90;;;;;;5083318;28;19931;-69
2022/05/08 03:37:45;;;;;;;;;;;6.40;99.90;;;;;;5086597;28;20364;-70
2022/05/08 03:40:11;;;;;;;;;;;6.40;99.90;;;;;;5078561;28;19931;-69
2022/05/08 03:42:37;;;;;;;;;;;6.40;99.90;;;;;;5096331;28;19924;-69
2022/05/08 03:45:02;;;;;;;;;;;6.50;99.90;;;;;;5081739;28;19927;-69
2022/05/08 03:47:28;;;;;;;;;;;6.40;99.90;;;;;;5097735;28;20007;-69
2022/05/08 03:49:53;;;;;;;;;;;6.70;99.90;;;;;;5086164;28;19924;-69
2022/05/08 03:52:19;;;;;;;;;;;6.70;99.90;;;;;;5093002;28;19924;-70
2022/05/08 03:54:44;;;;;;;;;;;6.50;99.90;;;;;;5095570;28;19924;-69
2022/05/08 03:57:10;;;;;;;;;;;6.50;99.90;;;;;;5093793;28;19963;-70
2022/05/08 03:59:35;;;;;;;;;;;6.50;99.90;;;;;;5095535;28;20385;-69
2022/05/08 04:02:01;;;;;;;;;;;6.50;99.90;;;;;;5090930;28;19924;-69
2022/05/08 04:04:27;;;;;;;;;;;6.50;99.90;;;;;;5082920;28;19924;-69
2022/05/08 04:06:52;;;;;;;;;;;6.50;99.90;;;;;;5093699;28;20481;-69
2022/05/08 04:09:18;;;;;;;;;;;6.60;99.90;;;;;;5094038;28;19924;-69
2022/05/08 04:11:43;;;;;;;;;;;6.60;99.90;;;;;;5089090;28;20393;-69
2022/05/08 04:14:09;;;;;;;;;;;6.60;99.90;;;;;;5090082;28;20362;-69
2022/05/08 04:16:35;;;;;;;;;;;6.60;99.90;;;;;;5086399;28;19977;-69
2022/05/08 04:19:00;;;;;;;;;;;6.60;99.90;;;;;;5086838;28;19963;-70
2022/05/08 04:21:26;;;;;;;;;;;6.60;99.90;;;;;;5093143;28;20413;-69
2022/05/08 04:26:36;;;;;;;;;;;6.60;99.90;;;;;;5093575;28;19924;-70
2022/05/08 04:29:02;;;;;;;;;;;6.60;99.90;;;;;;5086972;28;19978;-69
2022/05/08 04:31:28;;;;;;;;;;;6.60;99.90;;;;;;5089097;28;19932;-69
2022/05/08 04:33:54;;;;;;;;;;;6.50;99.90;;;;;;5094226;28;19927;-69
2022/05/08 04:36:19;;;;;;;;;;;7.50;99.90;;;;;;5091552;28;20048;-68
2022/05/08 04:38:45;;;;;;;;;;;6.50;99.90;;;;;;5090843;28;19970;-68
2022/05/08 04:41:11;;;;;;;;;;;6.60;99.90;;;;;;5085434;28;19932;-69
2022/05/08 04:43:37;;;;;;;;;;;6.70;99.90;;;;;;5090879;28;19924;-70
2022/05/08 04:46:02;;;;;;;;;;;6.80;99.90;;;;;;5091483;28;20302;-69
2022/05/08 04:48:28;;;;;;;;;;;7.20;99.90;;;;;;5093792;28;19924;-70
2022/05/08 04:50:53;;;;;;;;;;;6.90;99.90;;;;;;5089392;28;19935;-70
2022/05/08 04:53:22;;;;;;;;;;;6.90;99.90;;;;;;5088751;28;20341;-68
2022/05/08 04:55:47;;;;;;;;;;;7.00;99.90;;;;;;5088779;28;19995;-69
2022/05/08 04:58:13;;;;;;;;;;;7.00;99.90;;;;;;5085756;28;20031;-68
2022/05/08 05:00:38;;;;;;;;;;;7.20;99.90;;;;;;5092841;28;19935;-69
2022/05/08 05:03:04;;;;;;;;;;;7.20;99.90;;;;;;5075899;28;19931;-69
2022/05/08 05:05:30;;;;;;;;;;;7.30;99.90;;;;;;5105492;28;20278;-69
2022/05/08 05:07:55;;;;;;;;;;;7.40;99.90;;;;;;5090980;28;20030;-69
2022/05/08 05:10:22;;;;;;;;;;;7.40;99.90;;;;;;5090615;28;19932;-69
2022/05/08 05:12:48;;;;;;;;;;;7.50;99.90;;;;;;5088269;28;19973;-70
2022/05/08 05:15:13;;;;;;;;;;;7.60;99.90;;;;;;5091447;28;19999;-68
2022/05/08 05:17:40;;;;;;;;;;;7.70;99.90;;;;;;5089124;28;19935;-70
2022/05/08 05:20:06;;;;;;;;;;;7.90;99.90;;;;;;5089989;28;19924;-69
2022/05/08 05:22:32;;;;;;;;;;;8.00;99.90;;;;;;5081694;28;19969;-69
2022/05/08 05:24:58;;;;;;;;;;;8.10;99.90;;;;;;5096935;28;20003;-69
2022/05/08 05:27:23;;;;;;;;;;;8.10;99.90;;;;;;5089789;28;19928;-69
2022/05/08 05:29:49;;;;;;;;;;;8.10;99.90;;;;;;5079154;28;20442;-69
2022/05/08 05:32:15;;;;;;;;;;;8.20;99.90;;;;;;5087156;28;19931;-68
2022/05/08 05:34:40;;;;;;;;;;;8.20;99.90;;;;;;5086043;28;20271;-70
2022/05/08 05:37:06;;;;;;;;;;;10.20;99.90;;;;;;5089519;28;19949;-69
2022/05/08 05:39:32;;;;;;;;;;;8.50;99.90;;;;;;5089777;28;19924;-68
2022/05/08 05:41:57;;;;;;;;;;;9.40;99.90;;;;;;5091766;28;19978;-69
2022/05/08 05:44:23;;;;;;;;;;;8.40;99.90;;;;;;5085472;28;19928;-68
2022/05/08 05:49:33;;;;;;;;;;;8.80;99.90;;;;;;5086970;28;20373;-71
2022/05/08 05:51:58;;;;;;;;;;;8.80;99.90;;;;;;5089100;28;19928;-68
2022/05/08 05:54:27;;;;;;;;;;;8.90;99.90;;;;;;5091241;28;20521;-69
2022/05/08 05:56:52;;;;;;;;;;;8.90;99.90;;;;;;5090414;28;19970;-69
2022/05/08 05:59:18;;;;;;;;;;;9.10;99.90;;;;;;5092459;28;19927;-69
2022/05/08 06:01:43;;;;;;;;;;;9.20;99.90;;;;;;5085797;28;19924;-70
2022/05/08 06:04:09;;;;;;;;;;;9.40;99.90;;;;;;5088878;28;19928;-68
2022/05/08 06:06:35;;;;;;;;;;;9.40;99.90;;;;;;5086638;28;19924;-69
2022/05/08 06:09:00;;;;;;;;;;;9.50;99.90;;;;;;5087026;28;19949;-69
2022/05/08 06:11:26;;;;;;;;;;;9.70;99.90;;;;;;5091561;28;19924;-70
2022/05/08 06:13:51;;;;;;;;;;;9.70;99.90;;;;;;5091882;28;19931;-70
2022/05/08 06:16:17;;;;;;;;;;;9.90;99.90;;;;;;5084812;28;20041;-69
2022/05/08 06:18:44;;;;;;;;;;;9.90;99.90;;;;;;5084990;28;19925;-68
2022/05/08 06:21:10;;;;;;;;;;;10.00;99.90;;;;;;5075299;28;19925;-68
2022/05/08 06:23:35;;;;;;;;;;;10.40;99.90;;;;;;5087938;28;19954;-70
2022/05/08 06:26:02;;;;;;;;;;;10.30;99.90;;;;;;5088302;28;19924;-72
2022/05/08 06:28:28;;;;;;;;;;;10.20;99.90;;;;;;5089985;28;19923;-70
2022/05/08 06:30:54;;;;;;;;;;;10.30;99.90;;;;;;5084839;28;19931;-68
2022/05/08 06:33:19;;;;;;;;;;;10.40;99.90;;;;;;5085320;28;19925;-71
2022/05/08 06:35:45;;;;;;;;;;;10.50;99.90;;;;;;5085470;28;19970;-69
2022/05/08 06:38:11;;;;;;;;;;;10.50;99.90;;;;;;5087354;28;19981;-68
2022/05/08 06:40:37;;;;;;;;;;;10.70;99.90;;;;;;5076078;28;19971;-68
2022/05/08 06:43:02;;;;;;;;;;;10.60;99.90;;;;;;5092690;28;20343;-68
2022/05/08 06:45:28;;;;;;;;;;;10.50;99.90;;;;;;5087512;28;19924;-69
2022/05/08 06:47:53;;;;;;;;;;;10.50;99.90;;;;;;5080497;28;20015;-69
2022/05/08 06:50:19;;;;;;;;;;;10.50;99.90;;;;;;5071066;28;19924;-69
2022/05/08 06:52:45;;;;;;;;;;;10.40;99.90;;;;;;5087840;28;19928;-70
2022/05/08 06:55:10;;;;;;;;;;;10.80;99.90;;;;;;5086041;28;19969;-69
2022/05/08 06:57:36;;;;;;;;;;;10.70;99.90;;;;;;5083970;28;19964;-68
2022/05/08 07:02:47;;;;;;;;;;;10.70;99.90;;;;;;5088418;28;19924;-69
2022/05/08 07:05:13;;;;;;;;;;;10.90;99.90;;;;;;5084850;28;20333;-69
2022/05/08 07:07:38;;;;;;;;;;;11.00;99.90;;;;;;5090471;28;20358;-70
2022/05/08 07:10:04;;;;;;;;;;;11.40;99.90;;;;;;5086579;28;19943;-70
2022/05/08 07:12:30;;;;;;;;;;;11.00;99.90;;;;;;5087427;28;19958;-68
2022/05/08 07:14:55;;;;;;;;;;;11.00;99.90;;;;;;5084377;28;20010;-69
2022/05/08 07:17:24;;;;;;;;;;;11.10;99.90;;;;;;5085445;28;19932;-70
2022/05/08 07:19:49;;;;;;;;;;;11.40;99.90;;;;;;5090054;28;19935;-68
2022/05/08 07:22:15;;;;;;;;;;;11.00;99.90;;;;;;5076530;28;20037;-70
2022/05/08 07:24:41;;;;;;;;;;;11.00;99.90;;;;;;5086295;28;19928;-68
2022/05/08 07:27:10;;;;;;;;;;;11.10;99.90;;;;;;5088218;28;20289;-69
2022/05/08 07:29:45;;;;;;;;;;;11.00;99.90;;;;;;5106351;28;19931;-70
2022/05/08 07:32:11;;;;;;;;;;;11.10;99.90;;;;;;5086158;28;20348;-70
2022/05/08 07:37:21;;;;;;;;;;;11.50;99.90;;;;;;5083546;28;19925;-70
2022/05/08 07:39:47;;;;;;;;;;;11.70;99.90;;;;;;5110739;28;19932;-68
2022/05/08 07:42:12;;;;;;;;;;;11.80;99.90;;;;;;5091464;28;20309;-70
2022/05/08 07:44:38;;;;;;;;;;;11.90;99.90;;;;;;5092083;28;19924;-69
2022/05/08 07:47:04;;;;;;;;;;;12.30;99.90;;;;;;5092109;28;20055;-69
2022/05/08 07:49:29;;;;;;;;;;;12.30;99.80;;;;;;5091032;28;19924;-69
2022/05/08 07:51:55;;;;;;;;;;;12.50;99.70;;;;;;5090095;28;19931;-69
2022/05/08 07:54:21;;;;;;;;;;;12.50;98.90;;;;;;5092481;28;20320;-70
2022/05/08 07:56:46;;;;;;;;;;;12.70;99.10;;;;;;5084883;28;20021;-68
2022/05/08 07:59:12;;;;;;;;;;;12.70;98.70;;;;;;5090795;28;20019;-69
2022/05/08 08:01:37;;;;;;;;;;;13.20;98.00;;;;;;5091827;28;20014;-70
2022/05/08 08:04:04;;;;;;;;;;;12.50;98.50;;;;;;5090905;28;19974;-69
2022/05/08 08:06:32;;;;;;;;;;;12.60;99.10;;;;;;5091410;28;20397;-70
2022/05/08 08:08:58;;;;;;;;;;;12.70;99.20;;;;;;5091909;28;19931;-69
2022/05/08 08:11:24;;;;;;;;;;;12.80;98.10;;;;;;5092350;28;20018;-70
2022/05/08 08:13:49;;;;;;;;;;;12.60;98.40;;;;;;5091332;28;20031;-70
2022/05/08 08:16:15;;;;;;;;;;;12.40;97.90;;;;;;5085535;28;20365;-68
2022/05/08 08:18:43;;;;;;;;;;;12.40;98.10;;;;;;5101823;28;20019;-69
2022/05/08 08:21:13;;;;;;;;;;;12.40;97.50;;;;;;5106640;28;19924;-70
2022/05/08 08:23:39;;;;;;;;;;;12.50;97.70;;;;;;5092865;28;19924;-68
2022/05/08 08:26:05;;;;;;;;;;;12.80;98.40;;;;;;5080108;28;19989;-68
2022/05/08 08:28:30;;;;;;;;;;;12.50;98.20;;;;;;5088662;28;19924;-69
2022/05/08 08:30:56;;;;;;;;;;;12.40;98.60;;;;;;5083108;28;19931;-69
2022/05/08 08:33:22;;;;;;;;;;;12.30;99.00;;;;;;5093608;28;19931;-68
2022/05/08 08:35:47;;;;;;;;;;;12.40;99.50;;;;;;5089243;28;19928;-69
2022/05/08 08:38:14;;;;;;;;;;;12.50;98.50;;;;;;5090630;28;20003;-69
2022/05/08 08:40:40;;;;;;;;;;;12.60;98.90;;;;;;5092627;28;19928;-69
2022/05/08 08:43:07;;;;;;;;;;;12.80;98.80;;;;;;5086877;28;20409;-70
2022/05/08 08:48:27;;;;;;;;;;;13.10;97.20;;;;;;5086886;28;19935;-69
2022/05/08 08:50:52;;;;;;;;;;;13.10;96.70;;;;;;5081031;28;19932;-70
2022/05/08 08:53:18;;;;;;;;;;;13.20;97.20;;;;;;5082926;28;19924;-69
2022/05/08 08:55:47;;;;;;;;;;;13.30;96.50;;;;;;5089400;28;19932;-69
2022/05/08 08:58:12;;;;;;;;;;;13.30;96.30;;;;;;5074040;28;20430;-70
2022/05/08 09:00:38;;;;;;;;;;;14.40;96.30;;;;;;5080110;28;20016;-70
2022/05/08 09:03:03;;;;;;;;;;;13.70;96.80;;;;;;5084417;28;19931;-68
2022/05/08 09:05:29;;;;;;;;;;;13.70;95.80;;;;;;5079351;28;19924;-68
2022/05/08 09:07:59;;;;;;;;;;;13.60;95.40;;;;;;5085789;28;19924;-70
2022/05/08 09:10:35;;;;;;;;;;;13.70;96.20;;;;;;5082108;28;19931;-69
2022/05/08 09:13:03;;;;;;;;;;;13.80;95.80;;;;;;5084364;28;19955;-68
2022/05/08 09:15:30;;;;;;;;;;;14.10;95.60;;;;;;5088336;28;19928;-69
2022/05/08 09:17:57;;;;;;;;;;;14.20;95.80;;;;;;5083696;28;20010;-70
2022/05/08 09:20:23;;;;;;;;;;;14.20;95.70;;;;;;5085417;28;19924;-70
2022/05/08 09:23:21;;;;;;;;;;;14.10;95.50;;;;;;5083872;28;20298;-70
2022/05/08 09:25:47;;;;;;;;;;;14.20;95.80;;;;;;5055498;28;20278;-69
2022/05/08 09:28:17;;;;;;;;;;;14.20;94.60;;;;;;5086196;28;20293;-68
2022/05/08 09:30:54;;;;;;;;;;;14.00;95.00;;;;;;5082097;28;19925;-69
2022/05/08 09:33:23;;;;;;;;;;;13.80;95.50;;;;;;5085132;28;20417;-70
2022/05/08 09:35:48;;;;;;;;;;;13.80;94.70;;;;;;5084092;28;19924;-70
2022/05/08 09:38:14;;;;;;;;;;;13.70;94.90;;;;;;5086920;28;20259;-70
2022/05/08 09:40:39;;;;;;;;;;;13.80;95.10;;;;;;5084775;28;19924;-71
2022/05/08 09:43:05;;;;;;;;;;;13.60;95.90;;;;;;5088748;28;19924;-69
2022/05/08 09:45:31;;;;;;;;;;;13.70;95.00;;;;;;5087836;28;20289;-70
2022/05/08 09:47:57;;;;;;;;;;;15.30;94.70;;;;;;5088384;28;19924;-70
2022/05/08 09:50:22;;;;;;;;;;;14.10;94.20;;;;;;5091270;28;19924;-69
2022/05/08 09:52:48;;;;;;;;;;;14.20;94.00;;;;;;5080254;28;19940;-70
2022/05/08 09:55:14;;;;;;;;;;;14.40;93.70;;;;;;5083702;28;19924;-69
2022/05/08 09:57:40;;;;;;;;;;;14.70;94.00;;;;;;5083243;28;19929;-69
2022/05/08 10:00:06;;;;;;;;;;;14.70;92.80;;;;;;5081294;28;20037;-69
2022/05/08 10:02:32;;;;;;;;;;;14.60;93.20;;;;;;5069904;28;19928;-68
2022/05/08 10:04:58;;;;;;;;;;;14.50;93.40;;;;;;5080316;28;20029;-70
2022/05/08 10:07:24;;;;;;;;;;;14.50;93.40;;;;;;5080308;28;19950;-69
2022/05/08 10:15:30;;;;;;;;;;;14.70;93.50;;;;;;5073780;28;19935;-69
2022/05/08 10:18:22;;;;;;;;;;;14.70;92.50;;;;;;5081284;28;19997;-68
2022/05/08 10:21:01;;;;;;;;;;;14.80;92.40;;;;;;5080420;28;19932;-69
2022/05/08 10:23:40;;;;;;;;;;;14.70;92.80;;;;;;5076414;28;20349;-70
2022/05/08 10:26:13;;;;;;;;;;;14.70;92.30;;;;;;5058345;28;19974;-69
2022/05/08 10:28:57;;;;;;;;;;;15.00;92.70;;;;;;5085273;28;20696;-70
2022/05/08 10:31:42;;;;;;;;;;;15.20;91.80;;;;;;5082344;28;20374;-68
2022/05/08 10:34:08;;;;;;;;;;;15.40;91.80;;;;;;5081366;28;20090;-70
2022/05/08 10:36:33;;;;;;;;;;;15.50;91.60;;;;;;5097593;28;19939;-69
2022/05/08 10:39:17;;;;;;;;;;;15.90;91.50;;;;;;5082003;28;19929;-69
2022/05/08 10:41:43;;;;;;;;;;;15.90;90.70;;;;;;5084107;28;19969;-69
2022/05/08 10:44:28;;;;;;;;;;;15.90;91.00;;;;;;5088005;28;20396;-69
2022/05/08 10:47:13;;;;;;;;;;;16.20;90.60;;;;;;5093216;28;19924;-69
2022/05/08 10:49:39;;;;;;;;;;;16.30;90.30;;;;;;5073507;28;19929;-69
2022/05/08 10:52:08;;;;;;;;;;;16.40;89.40;;;;;;5090966;28;20348;-70
2022/05/08 10:54:33;;;;;;;;;;;16.40;90.50;;;;;;5087466;28;19925;-71
2022/05/08 10:56:59;;;;;;;;;;;16.60;86.60;;;;;;5083237;28;19928;-70
2022/05/08 10:59:43;;;;;;;;;;;16.60;86.90;;;;;;5090984;28;19928;-68
2022/05/08 11:02:09;;;;;;;;;;;16.90;85.50;;;;;;5085414;28;19963;-70
2022/05/08 11:04:49;;;;;;;;;;;16.90;81.70;;;;;;5092887;28;19975;-70
2022/05/08 11:07:20;;;;;;;;;;;17.40;82.60;;;;;;5096419;28;19963;-69
2022/05/08 11:09:47;;;;;;;;;;;17.40;80.90;;;;;;5095624;28;19928;-68
2022/05/08 11:12:13;;;;;;;;;;;17.40;82.60;;;;;;5096121;28;19924;-69
2022/05/08 11:14:39;;;;;;;;;;;17.10;83.30;;;;;;5095932;28;20015;-70
2022/05/08 11:17:15;;;;;;;;;;;17.40;81.20;;;;;;5088572;28;20020;-70
2022/05/08 11:19:53;;;;;;;;;;;17.50;78.50;;;;;;5077298;28;19947;-70
2022/05/08 11:22:18;;;;;;;;;;;17.40;80.20;;;;;;5080554;28;20014;-69
2022/05/08 11:24:49;;;;;;;;;;;17.30;81.40;;;;;;5110145;27;20031;-70
2022/05/08 11:27:15;;;;;;;;;;;17.50;80.40;;;;;;5094787;28;19930;-69
2022/05/08 11:29:50;;;;;;;;;;;17.70;78.20;;;;;;5111878;27;20023;-69
2022/05/08 11:38:00;;;;;;;;;;;17.20;80.20;;;;;;5095145;28;19924;-69
2022/05/08 11:40:26;;;;;;;;;;;16.90;81.60;;;;;;5094710;28;20297;-70
2022/05/08 11:42:52;;;;;;;;;;;17.20;82.10;;;;;;5095894;28;19924;-70
2022/05/08 11:45:18;;;;;;;;;;;16.80;80.90;;;;;;5094945;28;20022;-70
2022/05/08 11:47:50;;;;;;;;;;;16.80;81.00;;;;;;5093941;28;19946;-69
2022/05/08 11:50:15;;;;;;;;;;;16.80;80.70;;;;;;5095367;28;19966;-68
2022/05/08 11:52:41;;;;;;;;;;;16.70;81.30;;;;;;5105187;28;20320;-69
2022/05/08 11:55:08;;;;;;;;;;;16.70;78.60;;;;;;5094280;28;20223;-70
2022/05/08 11:57:40;;;;;;;;;;;16.70;82.00;;;;;;5094702;28;19924;-69
2022/05/08 12:00:12;;;;;;;;;;;16.90;81.80;;;;;;5091931;28;19925;-71
2022/05/08 12:02:39;;;;;;;;;;;17.10;80.60;;;;;;5089895;28;19932;-70
2022/05/08 12:05:05;;;;;;;;;;;17.20;82.50;;;;;;5089504;28;19959;-70
2022/05/08 12:07:38;;;;;;;;;;;17.50;79.30;;;;;;5095006;28;20002;-69
2022/05/08 12:10:04;;;;;;;;;;;17.60;79.70;;;;;;5089500;28;20030;-69
2022/05/08 12:12:37;;;;;;;;;;;17.50;78.70;;;;;;5073395;28;20441;-69
2022/05/08 12:15:06;;;;;;;;;;;17.70;78.20;;;;;;5078514;28;19931;-70
2022/05/08 12:17:35;;;;;;;;;;;17.70;72.70;;;;;;5092666;28;20274;-70
2022/05/08 12:20:00;;;;;;;;;;;17.40;76.30;;;;;;5093816;28;19963;-70
2022/05/08 12:22:27;;;;;;;;;;;17.50;76.10;;;;;;5094364;28;20364;-69
2022/05/08 12:24:54;;;;;;;;;;;17.30;77.00;;;;;;5094618;28;19924;-69
2022/05/08 12:27:20;;;;;;;;;;;17.50;77.20;;;;;;5094293;28;20435;-69
2022/05/08 12:29:46;;;;;;;;;;;17.50;76.40;;;;;;5093402;28;20035;-68
2022/05/08 12:32:12;;;;;;;;;;;17.50;76.60;;;;;;5093807;28;19924;-69
2022/05/08 12:34:40;;;;;;;;;;;17.70;78.20;;;;;;5082552;28;19931;-69
2022/05/08 12:37:06;;;;;;;;;;;17.80;75.40;;;;;;5105341;28;20007;-69
2022/05/08 12:39:32;;;;;;;;;;;17.90;75.30;;;;;;5103892;28;20023;-69
2022/05/08 12:41:57;;;;;;;;;;;17.90;78.00;;;;;;5090562;28;19939;-69
2022/05/08 12:44:23;;;;;;;;;;;18.00;76.10;;;;;;5091055;28;19928;-68
2022/05/08 12:46:49;;;;;;;;;;;18.10;74.30;;;;;;5089783;28;20382;-72
2022/05/08 12:49:15;;;;;;;;;;;18.10;71.70;;;;;;5089409;28;20357;-69
2022/05/08 12:51:42;;;;;;;;;;;17.90;74.40;;;;;;5089305;28;19940;-70
2022/05/08 12:54:08;;;;;;;;;;;17.90;74.30;;;;;;5089152;28;20386;-69
2022/05/08 12:56:34;;;;;;;;;;;18.20;75.90;;;;;;5087713;28;19980;-69
2022/05/08 13:01:44;;;;;;;;;;;18.50;72.10;;;;;;5089133;28;19996;-68
2022/05/08 13:04:09;;;;;;;;;;;18.40;72.70;;;;;;5090792;28;20377;-69
2022/05/08 13:06:35;;;;;;;;;;;19.00;72.20;;;;;;5105927;28;19928;-69
2022/05/08 13:09:01;;;;;;;;;;;18.90;72.40;;;;;;5080727;28;19981;-68
2022/05/08 13:11:27;;;;;;;;;;;18.80;73.60;;;;;;5088538;28;19935;-68
2022/05/08 13:13:53;;;;;;;;;;;19.10;69.70;;;;;;5102479;28;19928;-69
2022/05/08 13:16:18;;;;;;;;;;;19.00;69.80;;;;;;5082444;28;19928;-69
2022/05/08 13:18:44;;;;;;;;;;;18.80;69.80;;;;;;5087510;28;19932;-68
2022/05/08 13:21:10;;;;;;;;;;;18.50;70.60;;;;;;5087570;28;20425;-69
2022/05/08 13:23:35;;;;;;;;;;;18.50;71.60;;;;;;5089803;28;19935;-69
2022/05/08 13:26:01;;;;;;;;;;;18.90;72.90;;;;;;5085607;28;20421;-69
2022/05/08 13:28:32;;;;;;;;;;;19.50;70.90;;;;;;5087000;28;19928;-69
2022/05/08 13:30:58;;;;;;;;;;;19.80;68.80;;;;;;5089519;28;20445;-69
2022/05/08 13:33:26;;;;;;;;;;;20.20;66.50;;;;;;5082170;28;20060;-69
2022/05/08 13:35:53;;;;;;;;;;;20.40;64.30;;;;;;5080613;28;20415;-69
2022/05/08 13:38:20;;;;;;;;;;;20.40;65.10;;;;;;5087154;28;20031;-68
2022/05/08 13:40:49;;;;;;;;;;;19.90;64.90;;;;;;5068422;28;20187;-69
2022/05/08 13:43:15;;;;;;;;;;;19.40;66.00;;;;;;5088667;28;19943;-70
2022/05/08 13:45:41;;;;;;;;;;;19.70;65.50;;;;;;5089630;28;19932;-68
2022/05/08 13:48:07;;;;;;;;;;;19.80;64.30;;;;;;5089287;28;19935;-69
2022/05/08 13:50:32;;;;;;;;;;;20.60;63.70;;;;;;5105374;28;20385;-69
2022/05/08 13:52:58;;;;;;;;;;;20.80;62.80;;;;;;5079364;28;19952;-68
2022/05/08 13:55:24;;;;;;;;;;;20.50;63.60;;;;;;5074283;28;19935;-70
2022/05/08 13:57:54;;;;;;;;;;;20.60;61.90;;;;;;5074324;28;19970;-68
2022/05/08 14:00:21;;;;;;;;;;;20.70;63.00;;;;;;5085538;28;19928;-69
2022/05/08 14:02:47;;;;;;;;;;;20.50;61.20;;;;;;5089179;28;20306;-70
2022/05/08 14:05:12;;;;;;;;;;;20.60;60.20;;;;;;5089451;28;19935;-69
2022/05/08 14:07:38;;;;;;;;;;;20.50;62.30;;;;;;5088917;28;19943;-68
2022/05/08 14:10:04;;;;;;;;;;;20.60;59.40;;;;;;5088995;28;19969;-69
2022/05/08 14:12:30;;;;;;;;;;;20.40;59.40;;;;;;5089132;28;20317;-70
2022/05/08 14:14:55;;;;;;;;;;;20.40;59.80;;;;;;5088796;28;20274;-68
2022/05/08 14:17:21;;;;;;;;;;;20.30;60.20;;;;;;5089344;28;20406;-69
2022/05/08 14:19:46;;;;;;;;;;;20.10;60.50;;;;;;5089885;28;20023;-69
2022/05/08 14:22:12;;;;;;;;;;;20.20;60.00;;;;;;5089070;28;19928;-70
2022/05/08 14:24:37;;;;;;;;;;;19.80;61.00;;;;;;5085023;28;19949;-69
2022/05/08 14:27:05;;;;;;;;;;;19.10;62.10;;;;;;5087092;28;19928;-70
2022/05/08 14:29:30;;;;;;;;;;;18.60;63.60;;;;;;5083784;28;19933;-69
2022/05/08 14:37:24;;;;;;;;;;;18.70;64.90;;;;;;5085869;28;19973;-69
2022/05/08 14:39:50;;;;;;;;;;;19.20;61.60;;;;;;5081434;28;19932;-69
2022/05/08 14:42:15;;;;;;;;;;;19.20;62.00;;;;;;5088549;28;19928;-68
2022/05/08 14:44:41;;;;;;;;;;;19.20;62.90;;;;;;5082968;28;20362;-68
2022/05/08 14:47:06;;;;;;;;;;;19.30;64.60;;;;;;5082247;28;19928;-69
2022/05/08 14:49:32;;;;;;;;;;;19.70;62.50;;;;;;5068276;28;19934;-68
2022/05/08 14:51:57;;;;;;;;;;;19.30;61.70;;;;;;5068288;28;19928;-69
2022/05/08 14:54:23;;;;;;;;;;;19.40;61.10;;;;;;5088074;28;19928;-68
2022/05/08 14:56:48;;;;;;;;;;;18.60;62.40;;;;;;5087322;28;19932;-69
2022/05/08 14:59:14;;;;;;;;;;;17.40;64.40;;;;;;5099363;28;20032;-69
2022/05/08 15:01:39;;;;;;;;;;;16.50;67.20;;;;;;5088989;28;20411;-68
2022/05/08 15:04:05;;;;;;;;;;;15.70;69.00;;;;;;5087749;28;19928;-67